Time;durP1;ratioP1;P1;durP2;ratioP2;P2;SDS_P1;SDS_P2;PMS_P1;PMS_P2;Temp;Humidity;BMP_temperature;BMP_pressure;BME280_temperature;BME280_humidity;BME280_pressure;Samples;Min_cycle;Max_cycle;Signal;HPM_P1;HPM_P2
2022/02/11 00:04:45;;;;;;;8.13;4.97;;;7.20;99.90;;;;;;5096783;28;20077;-81
2022/02/11 00:07:01;;;;;;;7.55;5.15;;;7.20;99.90;;;;;;5095869;28;20032;-81
2022/02/11 00:09:26;;;;;;;7.85;4.70;;;7.20;99.90;;;;;;5095533;28;20051;-81
2022/02/11 00:11:53;;;;;;;6.60;4.80;;;7.10;99.90;;;;;;5095590;28;20024;-81
2022/02/11 00:14:19;;;;;;;8.75;4.68;;;7.20;99.90;;;;;;5094646;28;20031;-81
2022/02/11 00:16:45;;;;;;;6.47;4.70;;;7.10;99.90;;;;;;5094614;28;20057;-82
2022/02/11 00:19:10;;;;;;;7.72;4.80;;;7.10;99.90;;;;;;5094566;28;20414;-81
2022/02/11 00:21:36;;;;;;;8.70;4.68;;;7.10;99.90;;;;;;5094533;28;20039;-81
2022/02/11 00:24:03;;;;;;;6.97;4.53;;;7.20;99.90;;;;;;5095799;28;20490;-81
2022/02/11 00:26:33;;;;;;;8.95;5.18;;;7.10;99.90;;;;;;5094394;28;20020;-81
2022/02/11 00:34:21;;;;;;;10.27;4.80;;;7.10;99.90;;;;;;5095615;28;20034;-81
2022/02/11 01:02:11;;;;;;;8.38;4.93;;;7.10;99.90;;;;;;5095716;28;20038;-81
2022/02/11 01:04:13;;;;;;;7.38;4.07;;;7.10;99.90;;;;;;5095534;28;20502;-81
2022/02/11 01:06:39;;;;;;;9.32;4.90;;;7.10;99.90;;;;;;5093559;28;20032;-81
2022/02/11 01:09:06;;;;;;;8.60;5.00;;;7.10;99.90;;;;;;5093534;28;20115;-81
2022/02/11 01:11:48;;;;;;;8.07;5.00;;;7.10;99.90;;;;;;5094854;28;20548;-81
2022/02/11 01:14:14;;;;;;;7.50;5.15;;;7.10;99.90;;;;;;5093537;28;20031;-82
2022/02/11 01:16:45;;;;;;;8.10;4.72;;;7.10;99.90;;;;;;5094732;28;20020;-81
2022/02/11 01:45:11;;;;;;;9.13;4.63;;;7.00;99.90;;;;;;5094603;28;20082;-81
2022/02/11 01:48:00;;;;;;;8.20;4.75;;;7.10;99.90;;;;;;5092889;28;20025;-81
2022/02/11 01:50:46;;;;;;;7.05;4.60;;;7.00;99.90;;;;;;5094004;28;20020;-81
2022/02/11 02:01:57;;;;;;;6.78;4.40;;;7.00;99.90;;;;;;5094551;28;20056;-81
2022/02/11 02:04:44;;;;;;;8.27;4.57;;;7.00;99.90;;;;;;5093507;28;20059;-81
2022/02/11 02:25:32;;;;;;;6.05;3.83;;;7.00;99.90;;;;;;5093886;28;20024;-81
2022/02/11 02:57:45;;;;;;;4.70;3.40;;;6.90;99.90;;;;;;5093817;28;20161;-81
2022/02/11 03:50:34;;;;;;;3.83;2.50;;;6.90;99.90;;;;;;5096825;28;20036;-82
2022/02/11 04:56:43;;;;;;;1.92;0.82;;;6.70;99.90;;;;;;5095254;28;20044;-83
2022/02/11 05:01:53;;;;;;;1.00;0.80;;;6.70;99.90;;;;;;5095454;28;20035;-83
2022/02/11 05:04:18;;;;;;;1.00;0.80;;;6.70;99.90;;;;;;5093776;28;20025;-84
2022/02/11 05:06:44;;;;;;;1.10;0.80;;;6.70;99.90;;;;;;5093666;28;20034;-84
2022/02/11 05:09:10;;;;;;;1.25;0.80;;;6.70;99.90;;;;;;5093640;28;20028;-83
2022/02/11 05:11:35;;;;;;;0.95;0.88;;;6.70;99.90;;;;;;5093653;28;20020;-83
2022/02/11 05:14:01;;;;;;;1.08;0.90;;;6.70;99.90;;;;;;5093646;28;20028;-83
2022/02/11 05:16:27;;;;;;;0.70;0.70;;;6.70;99.90;;;;;;5093581;28;20020;-83
2022/02/11 05:18:52;;;;;;;1.13;0.93;;;6.70;99.90;;;;;;5093489;28;20020;-83
2022/02/11 05:21:18;;;;;;;1.30;0.82;;;6.70;99.90;;;;;;5093470;28;20028;-83
2022/02/11 05:23:44;;;;;;;1.48;0.80;;;6.70;99.90;;;;;;5093624;28;20031;-83
2022/02/11 05:26:09;;;;;;;0.90;0.70;;;6.70;99.90;;;;;;5093348;28;20024;-83
2022/02/11 05:28:35;;;;;;;0.50;0.50;;;6.60;99.90;;;;;;5093168;28;20123;-83
2022/02/11 05:31:01;;;;;;;2.25;0.80;;;6.60;99.90;;;;;;5093259;28;20028;-83
2022/02/11 05:33:28;;;;;;;0.98;0.80;;;6.60;99.90;;;;;;5093227;28;20024;-83
2022/02/11 05:35:54;;;;;;;0.85;0.63;;;6.60;99.90;;;;;;5093177;28;20016;-84
2022/02/11 05:38:19;;;;;;;1.63;0.90;;;6.60;99.90;;;;;;5092977;28;20048;-84
2022/02/11 05:40:45;;;;;;;2.75;1.10;;;6.70;99.90;;;;;;5093917;28;20161;-84
2022/02/11 05:43:11;;;;;;;1.08;0.80;;;6.60;99.90;;;;;;5093594;28;20024;-84
2022/02/11 05:45:37;;;;;;;1.02;0.88;;;6.60;99.90;;;;;;5094302;28;20435;-84
2022/02/11 05:48:04;;;;;;;1.08;0.82;;;6.60;99.90;;;;;;5092895;28;20062;-83
2022/02/11 05:50:30;;;;;;;1.38;1.02;;;6.60;99.90;;;;;;5094429;28;20020;-83
2022/02/11 05:52:56;;;;;;;2.35;0.95;;;6.60;99.90;;;;;;5094121;28;20027;-83
2022/02/11 05:55:22;;;;;;;1.30;0.90;;;6.60;99.90;;;;;;5093077;28;20026;-83
2022/02/11 05:57:47;;;;;;;1.98;0.93;;;6.60;99.90;;;;;;5092718;28;20020;-83
2022/02/11 06:00:13;;;;;;;1.02;0.85;;;6.60;99.90;;;;;;5093985;28;20016;-83
2022/02/11 06:02:39;;;;;;;2.33;1.17;;;6.60;99.90;;;;;;5092592;28;20027;-83
2022/02/11 06:05:05;;;;;;;2.08;0.95;;;6.60;99.90;;;;;;5093818;28;20016;-83
2022/02/11 06:07:30;;;;;;;1.45;1.10;;;6.60;99.90;;;;;;5092552;28;20365;-84
2022/02/11 06:09:58;;;;;;;1.55;1.20;;;6.60;99.90;;;;;;5092581;28;20028;-83
2022/02/11 06:12:24;;;;;;;1.45;1.13;;;6.60;99.90;;;;;;5092513;28;20020;-83
2022/02/11 06:14:50;;;;;;;3.15;1.50;;;6.60;99.90;;;;;;5092516;28;20527;-83
2022/02/11 06:17:16;;;;;;;2.08;1.10;;;6.60;99.90;;;;;;5092486;28;20058;-83
2022/02/11 06:19:45;;;;;;;1.48;0.95;;;6.60;99.90;;;;;;5092458;28;20059;-83
2022/02/11 06:22:11;;;;;;;2.22;1.40;;;6.60;99.90;;;;;;5092443;28;20032;-83
2022/02/11 06:24:36;;;;;;;2.45;1.20;;;6.60;99.90;;;;;;5092329;28;20308;-83
2022/02/11 06:27:02;;;;;;;2.95;1.25;;;6.60;99.90;;;;;;5092363;28;20150;-83
2022/02/11 06:29:28;;;;;;;1.60;1.17;;;6.60;99.90;;;;;;5092444;28;20024;-82
2022/02/11 06:31:54;;;;;;;3.33;1.38;;;6.50;99.90;;;;;;5092265;28;20020;-83
2022/02/11 06:34:20;;;;;;;2.70;1.38;;;6.50;99.90;;;;;;5092248;28;20020;-83
2022/02/11 06:36:46;;;;;;;2.75;1.40;;;6.50;99.90;;;;;;5092194;28;20387;-83
2022/02/11 06:39:11;;;;;;;2.25;1.35;;;6.50;99.90;;;;;;5093294;28;20052;-83
2022/02/11 06:41:37;;;;;;;2.40;1.02;;;6.50;99.90;;;;;;5092161;28;20028;-83
2022/02/11 06:44:03;;;;;;;3.58;1.30;;;6.50;99.90;;;;;;5092119;28;20028;-83
2022/02/11 06:46:28;;;;;;;3.45;1.80;;;6.50;99.90;;;;;;5092107;28;20035;-83
2022/02/11 06:48:54;;;;;;;2.45;1.42;;;6.50;99.90;;;;;;5092035;28;20419;-83
2022/02/11 06:51:20;;;;;;;2.60;1.48;;;6.50;99.90;;;;;;5092062;28;20024;-83
2022/02/11 06:53:45;;;;;;;2.15;1.40;;;6.50;99.90;;;;;;5092165;28;20017;-83
2022/02/11 06:56:11;;;;;;;1.90;1.25;;;6.50;99.90;;;;;;5096221;28;20020;-83
2022/02/11 06:58:37;;;;;;;2.22;1.45;;;6.50;99.90;;;;;;5096146;28;20032;-83
2022/02/11 07:01:03;;;;;;;1.67;1.13;;;6.50;99.90;;;;;;5096136;28;20032;-83
2022/02/11 07:03:28;;;;;;;4.40;1.40;;;6.40;99.90;;;;;;5096160;28;20028;-83
2022/02/11 07:05:56;;;;;;;1.80;1.40;;;6.50;99.90;;;;;;5096001;28;20024;-83
2022/02/11 07:08:24;;;;;;;1.90;1.30;;;6.40;99.90;;;;;;5095960;28;20035;-83
2022/02/11 07:10:50;;;;;;;1.50;1.23;;;6.40;99.90;;;;;;5095995;28;20471;-83
2022/02/11 07:13:15;;;;;;;2.08;1.23;;;6.40;99.90;;;;;;5095932;28;20016;-83
2022/02/11 07:15:42;;;;;;;2.33;1.48;;;6.40;99.90;;;;;;5095898;28;20028;-83
2022/02/11 07:18:09;;;;;;;2.55;1.50;;;6.40;99.90;;;;;;5097110;28;20024;-83
2022/02/11 07:20:35;;;;;;;1.75;1.08;;;6.50;99.90;;;;;;5095880;28;20523;-83
2022/02/11 07:23:00;;;;;;;2.47;1.70;;;6.40;99.90;;;;;;5095728;28;20464;-83
2022/02/11 07:25:26;;;;;;;3.25;1.70;;;6.50;99.90;;;;;;5095681;28;20050;-83
2022/02/11 07:27:52;;;;;;;5.03;1.80;;;6.40;99.90;;;;;;5096854;28;20451;-83
2022/02/11 07:30:20;;;;;;;3.20;1.75;;;6.50;99.90;;;;;;5095645;28;20020;-83
2022/02/11 07:32:49;;;;;;;6.10;1.30;;;6.50;99.90;;;;;;5095668;28;20032;-83
2022/02/11 07:35:14;;;;;;;2.03;1.52;;;6.70;99.90;;;;;;5095638;28;20081;-83
2022/02/11 07:37:40;;;;;;;2.53;1.50;;;7.30;99.90;;;;;;5096566;28;20047;-83
2022/02/11 07:40:06;;;;;;;4.93;1.70;;;7.90;99.90;;;;;;5095432;28;20059;-84
2022/02/11 07:42:33;;;;;;;2.88;1.35;;;8.50;99.90;;;;;;5095322;28;20020;-83
2022/02/11 07:44:59;;;;;;;2.30;1.23;;;9.00;99.90;;;;;;5095358;28;20020;-84
2022/02/11 07:47:27;;;;;;;3.03;1.48;;;9.50;99.90;;;;;;5095587;28;20031;-84
2022/02/11 07:49:54;;;;;;;4.10;1.45;;;9.90;99.90;;;;;;5096398;28;20034;-83
2022/02/11 07:52:20;;;;;;;2.05;1.10;;;10.30;99.90;;;;;;5095196;28;20521;-85
2022/02/11 07:54:45;;;;;;;2.80;1.20;;;10.70;99.90;;;;;;5095757;28;20136;-83
2022/02/11 07:57:11;;;;;;;2.75;1.10;;;10.90;99.90;;;;;;5095068;28;20028;-84
2022/02/11 07:59:37;;;;;;;2.72;1.30;;;11.20;99.90;;;;;;5095081;28;20028;-83
2022/02/11 08:02:03;;;;;;;1.65;1.10;;;11.50;99.90;;;;;;5095012;28;20060;-83
2022/02/11 08:04:29;;;;;;;2.25;1.10;;;11.80;99.90;;;;;;5095382;28;20051;-83
2022/02/11 08:06:55;;;;;;;2.50;1.30;;;12.10;99.90;;;;;;5094097;28;20028;-82
2022/02/11 08:09:21;;;;;;;2.67;1.55;;;12.40;99.90;;;;;;5094843;28;20475;-82
2022/02/11 08:11:47;;;;;;;2.85;1.30;;;12.70;99.90;;;;;;5096382;28;20058;-82
2022/02/11 08:14:13;;;;;;;2.50;0.90;;;13.00;99.90;;;;;;5094715;28;20043;-82
2022/02/11 08:16:38;;;;;;;2.03;0.95;;;13.10;99.90;;;;;;5094575;28;20020;-83
2022/02/11 08:19:06;;;;;;;2.20;0.90;;;13.20;99.90;;;;;;5094632;28;20430;-83
2022/02/11 08:21:33;;;;;;;2.72;1.00;;;13.30;99.90;;;;;;5094863;28;20077;-83
2022/02/11 08:23:59;;;;;;;2.55;1.00;;;13.10;99.90;;;;;;5094597;28;20467;-83
2022/02/11 08:26:29;;;;;;;2.08;0.95;;;12.70;99.90;;;;;;5094620;28;20028;-82
2022/02/11 08:28:55;;;;;;;3.17;1.23;;;12.30;99.90;;;;;;5094421;28;20115;-83
2022/02/11 08:31:20;;;;;;;3.20;1.10;;;11.40;99.90;;;;;;5094834;28;20093;-82
2022/02/11 08:33:49;;;;;;;4.18;1.45;;;10.40;99.90;;;;;;5094442;28;20122;-82
2022/02/11 08:36:15;;;;;;;3.30;1.30;;;9.70;99.90;;;;;;5095868;28;20020;-82
2022/02/11 08:38:41;;;;;;;3.97;1.25;;;9.10;99.90;;;;;;5094103;28;20079;-82
2022/02/11 08:41:08;;;;;;;2.78;1.40;;;8.70;99.90;;;;;;5095574;28;20059;-81
2022/02/11 08:43:34;;;;;;;3.55;1.60;;;8.30;99.90;;;;;;5094281;28;20036;-82
2022/02/11 08:46:00;;;;;;;1.92;1.30;;;8.10;99.90;;;;;;5094182;28;20117;-82
2022/02/11 08:48:26;;;;;;;3.65;1.52;;;7.90;99.90;;;;;;5094072;28;20492;-82
2022/02/11 08:50:52;;;;;;;3.95;1.55;;;7.70;99.90;;;;;;5095537;28;20108;-82
2022/02/11 08:53:17;;;;;;;4.45;1.55;;;7.80;99.90;;;;;;5095295;28;20020;-82
2022/02/11 08:55:44;;;;;;;3.30;1.80;;;8.50;99.90;;;;;;5094299;28;20035;-81
2022/02/11 08:58:09;;;;;;;3.88;2.00;;;9.30;99.90;;;;;;5093999;28;20024;-82
2022/02/11 09:00:35;;;;;;;4.55;1.90;;;9.70;99.90;;;;;;5093998;28;20024;-82
2022/02/11 09:03:01;;;;;;;4.85;1.92;;;10.00;99.90;;;;;;5093950;28;20031;-81
2022/02/11 09:05:27;;;;;;;4.07;1.98;;;10.20;99.90;;;;;;5093885;28;20028;-82
2022/02/11 09:08:01;;;;;;;4.43;2.05;;;10.40;99.90;;;;;;5093698;28;20081;-82
2022/02/11 09:10:28;;;;;;;3.53;1.83;;;10.50;99.90;;;;;;5093675;28;20027;-81
2022/02/11 09:12:55;;;;;;;4.82;1.95;;;10.60;99.90;;;;;;5093717;28;20020;-81
2022/02/11 09:15:21;;;;;;;4.13;1.83;;;10.60;99.90;;;;;;5093598;28;20456;-81
2022/02/11 09:17:48;;;;;;;7.10;1.90;;;10.50;99.90;;;;;;5092544;28;20073;-81
2022/02/11 09:20:15;;;;;;;5.15;2.03;;;10.60;99.90;;;;;;5094918;28;20040;-81
2022/02/11 09:22:40;;;;;;;6.28;2.22;;;10.50;99.90;;;;;;5093442;28;20030;-82
2022/02/11 09:25:07;;;;;;;4.63;2.17;;;10.50;99.90;;;;;;5094772;28;20024;-81
2022/02/11 09:27:33;;;;;;;4.85;1.80;;;10.40;99.90;;;;;;5093432;28;20024;-82
2022/02/11 09:29:59;;;;;;;5.13;2.13;;;10.40;99.90;;;;;;5094614;28;20024;-82
2022/02/11 09:32:24;;;;;;;8.70;2.20;;;10.30;99.90;;;;;;5093223;28;20024;-82
2022/02/11 09:34:50;;;;;;;4.43;1.80;;;10.30;99.90;;;;;;5093214;28;20031;-82
2022/02/11 09:37:16;;;;;;;6.93;2.42;;;10.30;99.90;;;;;;5093041;28;20120;-82
2022/02/11 09:39:41;;;;;;;4.97;1.98;;;10.20;99.90;;;;;;5093121;28;20484;-81
2022/02/11 09:42:08;;;;;;;3.45;1.80;;;10.20;99.90;;;;;;5094719;28;20039;-82
2022/02/11 09:44:35;;;;;;;5.53;1.88;;;10.30;99.90;;;;;;5094461;28;20107;-82
2022/02/11 09:47:01;;;;;;;3.92;1.75;;;10.40;99.90;;;;;;5093009;28;20394;-82
2022/02/11 09:49:27;;;;;;;4.57;1.90;;;10.40;99.90;;;;;;5093043;28;20115;-81
2022/02/11 09:51:53;;;;;;;4.35;1.95;;;10.40;99.90;;;;;;5092905;28;20024;-81
2022/02/11 09:54:21;;;;;;;5.28;2.30;;;10.50;99.90;;;;;;5092885;28;20073;-82
2022/02/11 09:56:50;;;;;;;5.00;1.80;;;10.50;99.90;;;;;;5094335;28;20020;-81
2022/02/11 09:59:16;;;;;;;5.40;1.90;;;10.50;99.90;;;;;;5093142;28;20027;-82
2022/02/11 10:01:43;;;;;;;6.68;1.98;;;10.50;99.90;;;;;;5092908;28;20032;-82
2022/02/11 10:04:08;;;;;;;4.50;1.52;;;10.50;99.90;;;;;;5092752;28;20028;-81
2022/02/11 10:06:34;;;;;;;4.45;1.70;;;10.50;99.90;;;;;;5092627;28;20035;-81
2022/02/11 10:09:00;;;;;;;4.43;1.73;;;10.40;99.90;;;;;;5092496;28;20069;-81
2022/02/11 10:11:26;;;;;;;4.22;1.67;;;10.40;99.90;;;;;;5092729;28;20500;-81
2022/02/11 10:13:54;;;;;;;7.18;1.65;;;10.40;99.90;;;;;;5092469;28;20024;-82
2022/02/11 10:16:24;;;;;;;4.68;1.63;;;10.20;99.90;;;;;;5092885;28;20502;-82
2022/02/11 10:18:51;;;;;;;7.32;1.80;;;10.10;99.90;;;;;;5092763;28;20100;-82
2022/02/11 10:21:23;;;;;;;3.22;1.70;;;10.10;99.90;;;;;;5092585;28;20484;-81
2022/02/11 10:23:51;;;;;;;5.18;1.75;;;10.10;99.90;;;;;;5092482;28;20040;-81
2022/02/11 10:26:18;;;;;;;4.20;1.20;;;9.90;99.90;;;;;;5092421;28;20027;-81
2022/02/11 10:28:43;;;;;;;3.72;1.48;;;9.70;99.90;;;;;;5091945;28;20028;-81
2022/02/11 10:31:19;;;;;;;4.47;1.73;;;9.40;99.90;;;;;;5092177;28;20020;-81
2022/02/11 10:34:04;;;;;;;5.30;1.45;;;9.20;99.90;;;;;;5092226;28;20020;-81
2022/02/11 10:36:46;;;;;;;7.40;1.60;;;9.10;99.90;;;;;;5092201;28;20088;-81
2022/02/11 10:39:19;;;;;;;4.35;1.30;;;9.20;99.90;;;;;;5092102;28;20051;-81
2022/02/11 10:41:53;;;;;;;4.43;1.38;;;9.10;99.90;;;;;;5092279;28;20052;-81
2022/02/11 10:44:24;;;;;;;3.33;1.20;;;9.10;99.90;;;;;;5093459;28;20392;-81
2022/02/11 10:46:52;;;;;;;4.68;1.52;;;9.20;99.90;;;;;;5093440;28;20024;-81
2022/02/11 10:49:29;;;;;;;3.92;1.10;;;9.20;99.90;;;;;;5092072;28;20024;-81
2022/02/11 10:51:55;;;;;;;4.03;1.40;;;9.30;99.90;;;;;;5092200;28;20483;-81
2022/02/11 10:54:23;;;;;;;5.50;1.60;;;9.20;99.90;;;;;;5092110;28;20021;-81
2022/02/11 10:56:55;;;;;;;4.85;1.73;;;9.20;99.90;;;;;;5092078;28;20020;-81
2022/02/11 10:59:35;;;;;;;7.63;1.88;;;9.10;99.90;;;;;;5092015;28;20020;-81
2022/02/11 11:02:06;;;;;;;5.15;1.35;;;9.00;99.90;;;;;;5092008;28;20051;-81
2022/02/11 11:04:32;;;;;;;6.35;1.73;;;8.90;99.90;;;;;;5092027;28;20028;-81
2022/02/11 11:06:57;;;;;;;4.57;1.45;;;8.90;99.90;;;;;;5091950;28;20028;-82
2022/02/11 11:09:25;;;;;;;4.65;1.65;;;8.90;99.90;;;;;;5092015;28;20031;-81
2022/02/11 11:11:54;;;;;;;4.15;1.17;;;8.90;99.90;;;;;;5091935;28;20049;-81
2022/02/11 11:14:21;;;;;;;7.13;1.67;;;9.00;99.90;;;;;;5091975;28;20181;-82
2022/02/11 11:16:49;;;;;;;4.13;1.50;;;9.10;99.90;;;;;;5091867;28;20111;-82
2022/02/11 11:19:15;;;;;;;4.55;1.40;;;9.20;99.90;;;;;;5091878;28;20020;-82
2022/02/11 11:22:14;;;;;;;4.47;1.70;;;9.20;99.90;;;;;;5091914;28;20046;-81
2022/02/11 11:24:50;;;;;;;3.17;1.55;;;9.30;99.90;;;;;;5091984;28;20032;-82
2022/02/11 11:27:46;;;;;;;4.50;1.50;;;9.40;99.90;;;;;;5091775;28;20024;-81
2022/02/11 11:30:26;;;;;;;6.40;1.70;;;9.50;99.90;;;;;;5091637;28;20115;-81
2022/02/11 11:33:04;;;;;;;4.22;1.67;;;9.50;99.90;;;;;;5092650;28;20069;-82
2022/02/11 11:35:31;;;;;;;4.32;1.30;;;9.60;99.90;;;;;;5091619;28;20017;-81
2022/02/11 11:38:13;;;;;;;3.35;1.42;;;9.60;99.90;;;;;;5091464;28;20403;-81
2022/02/11 11:40:40;;;;;;;7.97;1.90;;;9.70;99.90;;;;;;5092974;28;20038;-81
2022/02/11 11:43:16;;;;;;;4.85;1.40;;;9.70;99.90;;;;;;5095360;28;20024;-81
2022/02/11 11:45:43;;;;;;;3.72;1.60;;;9.70;99.90;;;;;;5096723;28;20026;-82
2022/02/11 11:48:16;;;;;;;6.60;1.65;;;9.70;99.90;;;;;;5095160;28;20051;-81
2022/02/11 11:50:44;;;;;;;5.72;1.63;;;9.70;99.90;;;;;;5095249;28;20024;-81
2022/02/11 11:53:26;;;;;;;6.28;1.48;;;9.70;99.90;;;;;;5096503;28;20447;-81
2022/02/11 11:55:53;;;;;;;6.35;1.35;;;9.80;99.90;;;;;;5095446;28;20391;-81
2022/02/11 11:58:31;;;;;;;3.70;1.48;;;9.80;99.90;;;;;;5096319;28;20077;-82
2022/02/11 12:01:03;;;;;;;5.45;1.48;;;9.80;99.90;;;;;;5096354;28;20479;-82
2022/02/11 12:03:33;;;;;;;8.93;1.65;;;9.80;99.90;;;;;;5094977;28;20496;-82
2022/02/11 12:06:17;;;;;;;5.03;1.73;;;9.90;99.90;;;;;;5094909;28;20027;-82
2022/02/11 12:08:46;;;;;;;4.95;1.65;;;9.80;99.90;;;;;;5095740;28;20092;-83
2022/02/11 12:11:12;;;;;;;6.50;1.50;;;9.90;99.90;;;;;;5096170;28;20016;-81
2022/02/11 12:13:39;;;;;;;3.58;1.35;;;9.90;99.90;;;;;;5095916;28;20165;-82
2022/02/11 12:16:05;;;;;;;7.70;1.60;;;9.90;99.90;;;;;;5094738;28;20073;-82
2022/02/11 12:18:31;;;;;;;2.92;1.17;;;9.90;99.90;;;;;;5094738;28;20489;-82
2022/02/11 12:20:59;;;;;;;4.20;1.23;;;9.80;99.90;;;;;;5096022;28;20117;-82
2022/02/11 12:28:56;;;;;;;3.60;1.40;;;9.90;99.90;;;;;;5096235;28;20051;-83
2022/02/11 12:31:23;;;;;;;3.17;1.23;;;9.80;99.90;;;;;;5095753;28;20209;-81
2022/02/11 12:33:51;;;;;;;3.53;1.70;;;9.80;99.90;;;;;;5094482;28;20024;-83
2022/02/11 12:36:18;;;;;;;5.22;1.38;;;9.70;99.90;;;;;;5094404;28;20524;-81
2022/02/11 12:38:55;;;;;;;3.30;1.33;;;9.60;99.90;;;;;;5094201;28;20054;-81
2022/02/11 12:41:20;;;;;;;3.33;1.48;;;9.40;99.90;;;;;;5094378;28;20403;-81
2022/02/11 12:43:57;;;;;;;5.20;1.63;;;9.30;99.90;;;;;;5094310;28;20032;-81
2022/02/11 12:46:23;;;;;;;5.18;2.00;;;9.10;99.90;;;;;;5095555;28;20028;-81
2022/02/11 12:48:49;;;;;;;5.03;1.60;;;9.00;99.90;;;;;;5094116;28;20111;-81
2022/02/11 12:51:17;;;;;;;2.80;1.40;;;8.90;99.90;;;;;;5094148;28;20435;-81
2022/02/11 12:53:43;;;;;;;2.40;1.25;;;8.80;99.90;;;;;;5093872;28;20025;-81
2022/02/11 12:56:13;;;;;;;3.03;1.40;;;8.70;99.90;;;;;;5094014;28;20024;-82
2022/02/11 12:58:38;;;;;;;7.45;1.88;;;8.70;99.90;;;;;;5095251;28;20023;-82
2022/02/11 13:01:04;;;;;;;6.05;1.52;;;8.60;99.90;;;;;;5093975;28;20107;-81
2022/02/11 13:03:30;;;;;;;8.27;1.80;;;8.60;99.90;;;;;;5095151;28;20448;-82
2022/02/11 13:05:56;;;;;;;3.10;1.52;;;8.60;99.90;;;;;;5093724;28;20031;-81
2022/02/11 13:08:24;;;;;;;7.43;1.80;;;8.60;99.90;;;;;;5093686;28;20480;-81
2022/02/11 13:11:05;;;;;;;4.63;1.95;;;8.50;99.90;;;;;;5095271;28;20020;-81
2022/02/11 13:13:31;;;;;;;3.90;1.50;;;8.50;99.90;;;;;;5093715;28;20480;-81
2022/02/11 13:15:58;;;;;;;3.08;1.50;;;8.50;99.90;;;;;;5093705;28;20028;-81
2022/02/11 13:18:30;;;;;;;4.97;2.13;;;8.40;99.90;;;;;;5094436;28;20476;-82
2022/02/11 13:21:11;;;;;;;3.58;1.48;;;8.40;99.90;;;;;;5093634;28;20080;-82
2022/02/11 13:23:37;;;;;;;5.43;1.67;;;8.40;99.90;;;;;;5093538;28;20031;-81
2022/02/11 13:26:12;;;;;;;5.13;1.33;;;8.50;99.90;;;;;;5093449;28;20063;-81
2022/02/11 13:28:49;;;;;;;4.65;1.67;;;8.60;99.90;;;;;;5093357;28;20024;-81
2022/02/11 13:31:15;;;;;;;5.05;1.60;;;8.70;99.90;;;;;;5094591;28;20085;-82
2022/02/11 13:33:41;;;;;;;5.03;1.48;;;8.90;99.90;;;;;;5093248;28;20475;-81
2022/02/11 13:36:22;;;;;;;3.97;1.50;;;9.10;99.90;;;;;;5093231;28;20020;-80
2022/02/11 13:38:49;;;;;;;5.22;1.77;;;9.10;99.90;;;;;;5093043;28;20056;-81
2022/02/11 13:41:15;;;;;;;3.40;1.83;;;9.10;99.90;;;;;;5094426;28;20031;-81
2022/02/11 13:43:56;;;;;;;2.65;1.30;;;9.10;99.90;;;;;;5093109;28;20035;-81
2022/02/11 13:46:29;;;;;;;5.40;1.60;;;9.00;99.90;;;;;;5093942;28;20161;-81
2022/02/11 13:49:05;;;;;;;4.72;1.60;;;8.90;99.90;;;;;;5092954;28;20407;-82
2022/02/11 13:51:32;;;;;;;3.78;1.40;;;8.80;99.90;;;;;;5092947;28;20021;-82
2022/02/11 13:54:15;;;;;;;3.75;1.40;;;8.70;99.90;;;;;;5094157;28;20027;-81
2022/02/11 13:56:46;;;;;;;4.28;1.50;;;8.50;99.90;;;;;;5092913;28;20035;-81
2022/02/11 13:59:23;;;;;;;4.88;1.40;;;8.50;99.90;;;;;;5094146;28;20021;-81
2022/02/11 14:01:49;;;;;;;2.15;1.27;;;8.40;99.90;;;;;;5094130;28;20024;-81
2022/02/11 14:04:19;;;;;;;4.03;1.40;;;8.30;99.90;;;;;;5092134;28;20550;-81
2022/02/11 14:06:47;;;;;;;5.15;1.50;;;8.30;99.90;;;;;;5092633;28;20395;-81
2022/02/11 14:09:38;;;;;;;3.67;1.42;;;8.20;99.90;;;;;;5092598;28;20021;-81
2022/02/11 14:12:17;;;;;;;3.42;1.27;;;8.10;99.90;;;;;;5094227;28;20020;-81
2022/02/11 14:14:54;;;;;;;3.25;1.40;;;8.10;99.90;;;;;;5092626;28;20495;-81
2022/02/11 14:17:20;;;;;;;6.15;1.65;;;8.00;99.90;;;;;;5092576;28;20483;-82
2022/02/11 14:19:46;;;;;;;2.67;1.38;;;8.00;99.90;;;;;;5092476;28;20035;-82
2022/02/11 14:22:11;;;;;;;4.75;1.48;;;8.00;99.90;;;;;;5092436;28;20020;-82
2022/02/11 14:24:38;;;;;;;3.97;1.73;;;8.00;99.90;;;;;;5092454;28;20038;-82
2022/02/11 14:27:06;;;;;;;6.03;1.40;;;8.00;99.90;;;;;;5092379;28;20036;-82
2022/02/11 14:29:32;;;;;;;3.92;1.67;;;8.00;99.90;;;;;;5092312;28;20035;-82
2022/02/11 14:31:57;;;;;;;5.53;1.38;;;8.10;99.90;;;;;;5093609;28;20383;-82
2022/02/11 14:34:23;;;;;;;5.68;1.45;;;8.10;99.90;;;;;;5093556;28;20027;-81
2022/02/11 14:36:49;;;;;;;5.18;1.60;;;8.20;99.90;;;;;;5092352;28;20024;-81
2022/02/11 14:39:19;;;;;;;4.20;1.50;;;8.20;99.90;;;;;;5092089;28;20048;-81
2022/02/11 14:41:51;;;;;;;4.18;1.27;;;8.20;99.90;;;;;;5092246;28;20024;-82
2022/02/11 14:44:21;;;;;;;4.15;1.50;;;8.30;99.90;;;;;;5092407;28;20042;-83
2022/02/11 14:46:49;;;;;;;3.75;1.45;;;8.40;99.90;;;;;;5092175;28;20101;-82
2022/02/11 14:49:18;;;;;;;4.82;1.73;;;8.50;99.90;;;;;;5092045;28;20024;-82
2022/02/11 14:51:50;;;;;;;4.72;1.38;;;8.50;99.90;;;;;;5092154;28;20471;-82
2022/02/11 14:54:16;;;;;;;3.97;1.70;;;8.50;99.90;;;;;;5092204;28;20016;-82
2022/02/11 14:56:44;;;;;;;5.32;1.50;;;8.50;99.90;;;;;;5092111;28;20023;-81
2022/02/11 14:59:10;;;;;;;5.22;1.60;;;8.50;99.90;;;;;;5092038;28;20024;-82
2022/02/11 15:01:39;;;;;;;4.15;1.40;;;8.60;99.90;;;;;;5092055;28;20028;-81
2022/02/11 15:04:05;;;;;;;5.30;1.40;;;8.60;99.90;;;;;;5091943;28;20483;-81
2022/02/11 15:06:31;;;;;;;6.22;1.45;;;8.60;99.90;;;;;;5093187;28;20031;-81
2022/02/11 15:08:57;;;;;;;5.03;1.80;;;8.50;99.90;;;;;;5093170;28;20471;-81
2022/02/11 15:11:23;;;;;;;2.95;1.30;;;8.50;99.90;;;;;;5092242;28;20380;-81
2022/02/11 15:13:49;;;;;;;5.38;1.52;;;8.50;99.90;;;;;;5091870;28;20130;-81
2022/02/11 15:16:14;;;;;;;4.72;1.45;;;8.40;99.90;;;;;;5095782;28;20016;-81
2022/02/11 15:18:40;;;;;;;6.20;1.80;;;8.30;99.90;;;;;;5097470;28;20028;-81
2022/02/11 15:21:06;;;;;;;6.75;1.55;;;8.30;99.90;;;;;;5095878;28;20046;-81
2022/02/11 15:23:37;;;;;;;2.47;1.50;;;8.30;99.90;;;;;;5095891;28;20024;-81
2022/02/11 15:26:05;;;;;;;6.38;1.52;;;8.20;99.90;;;;;;5095842;28;20024;-81
2022/02/11 15:28:33;;;;;;;3.65;1.58;;;8.20;99.90;;;;;;5095720;28;20024;-81
2022/02/11 15:30:59;;;;;;;4.47;1.65;;;8.20;99.90;;;;;;5095671;28;20024;-81
2022/02/11 15:33:25;;;;;;;5.72;1.50;;;8.20;99.90;;;;;;5095646;28;20021;-81
2022/02/11 15:35:53;;;;;;;7.10;1.50;;;8.20;99.90;;;;;;5095589;28;20016;-81
2022/02/11 15:38:19;;;;;;;4.22;1.50;;;8.10;99.90;;;;;;5095365;28;20557;-82
2022/02/11 15:40:45;;;;;;;4.25;1.52;;;8.10;99.90;;;;;;5095513;28;20020;-82
2022/02/11 15:43:11;;;;;;;4.55;1.70;;;8.10;99.90;;;;;;5096743;28;20024;-81
2022/02/11 15:45:37;;;;;;;4.00;1.60;;;8.10;99.90;;;;;;5096694;28;20028;-81
2022/02/11 15:48:03;;;;;;;6.88;1.65;;;8.10;99.90;;;;;;5095336;28;20544;-82
2022/02/11 15:50:29;;;;;;;3.38;1.55;;;8.10;99.90;;;;;;5095359;28;20017;-82
2022/02/11 15:52:55;;;;;;;4.65;1.60;;;8.10;99.90;;;;;;5095237;28;20476;-82
2022/02/11 15:55:22;;;;;;;4.03;1.60;;;8.10;99.90;;;;;;5095237;28;20035;-81
2022/02/11 15:57:49;;;;;;;3.75;1.58;;;8.10;99.90;;;;;;5095187;28;20024;-81
2022/02/11 16:00:15;;;;;;;4.25;1.70;;;8.00;99.90;;;;;;5095096;28;20020;-81
2022/02/11 16:02:42;;;;;;;6.00;1.50;;;8.00;99.90;;;;;;5095113;28;20024;-81
2022/02/11 16:05:08;;;;;;;5.05;1.55;;;7.90;99.90;;;;;;5095530;28;20031;-81
2022/02/11 16:07:36;;;;;;;6.22;2.05;;;7.90;99.90;;;;;;5094985;28;20035;-81
2022/02/11 16:10:06;;;;;;;3.28;1.58;;;7.90;99.90;;;;;;5094852;28;20024;-81
2022/02/11 16:12:32;;;;;;;3.33;1.40;;;7.80;99.90;;;;;;5095227;28;20376;-81
2022/02/11 16:15:00;;;;;;;5.68;1.98;;;7.80;99.90;;;;;;5094892;28;20024;-81
2022/02/11 16:17:27;;;;;;;6.15;1.80;;;7.80;99.90;;;;;;5094785;28;20024;-82
2022/02/11 16:19:53;;;;;;;5.43;1.50;;;7.80;99.90;;;;;;5096045;28;20077;-82
2022/02/11 16:22:20;;;;;;;6.35;1.90;;;7.80;99.90;;;;;;5094711;28;20028;-81
2022/02/11 16:24:48;;;;;;;3.47;1.38;;;7.70;99.90;;;;;;5094716;28;20028;-82
2022/02/11 16:27:16;;;;;;;4.93;1.80;;;7.70;99.90;;;;;;5094045;28;20024;-82
2022/02/11 16:29:42;;;;;;;4.72;2.00;;;7.70;99.90;;;;;;5094469;28;20522;-82
2022/02/11 16:32:09;;;;;;;5.63;1.88;;;7.70;99.90;;;;;;5095855;28;20560;-81
2022/02/11 16:34:35;;;;;;;6.43;1.90;;;7.70;99.90;;;;;;5095771;28;20361;-82
2022/02/11 16:37:01;;;;;;;5.32;1.75;;;7.70;99.90;;;;;;5095548;28;20020;-82
2022/02/11 16:39:26;;;;;;;6.65;1.98;;;7.60;99.90;;;;;;5094676;28;20028;-82
2022/02/11 16:41:52;;;;;;;7.57;2.00;;;7.70;99.90;;;;;;5094351;28;20024;-81
2022/02/11 16:44:18;;;;;;;5.43;1.70;;;7.60;99.90;;;;;;5094263;28;20077;-81
2022/02/11 16:46:47;;;;;;;5.07;1.88;;;7.60;99.90;;;;;;5094279;28;20540;-81
2022/02/11 16:49:13;;;;;;;5.20;1.88;;;7.60;99.90;;;;;;5094104;28;20020;-81
2022/02/11 16:51:40;;;;;;;5.05;1.67;;;7.50;99.90;;;;;;5094193;28;20360;-82
2022/02/11 16:54:06;;;;;;;6.30;1.92;;;7.50;99.90;;;;;;5094149;28;20027;-81
2022/02/11 16:56:32;;;;;;;5.10;2.00;;;7.50;99.90;;;;;;5095607;28;20379;-82
2022/02/11 16:58:58;;;;;;;4.43;1.75;;;7.60;99.90;;;;;;5094285;28;20035;-81